sensor_id;sensor_type;location;lat;lon;timestamp;pressure;altitude;pressure_sealevel;temperature;humidity
37848;BME280;23688;33.130;-117.188;2023-05-12T00:00:21;99377.47;;;18.89;64.47
37848;BME280;23688;33.130;-117.188;2023-05-12T00:02:48;99374.94;;;19.11;64.89
37848;BME280;23688;33.130;-117.188;2023-05-12T00:05:14;99375.72;;;18.88;62.70
37848;BME280;23688;33.130;-117.188;2023-05-12T00:07:40;99372.19;;;18.83;65.66
37848;BME280;23688;33.130;-117.188;2023-05-12T00:10:07;99381.13;;;19.14;63.04
37848;BME280;23688;33.130;-117.188;2023-05-12T00:12:33;99367.09;;;19.15;64.75
37848;BME280;23688;33.130;-117.188;2023-05-12T00:15:00;99377.50;;;18.97;63.08
37848;BME280;23688;33.130;-117.188;2023-05-12T00:17:27;99379.16;;;18.78;64.38
37848;BME280;23688;33.130;-117.188;2023-05-12T00:19:54;99383.63;;;18.93;63.54
37848;BME280;23688;33.130;-117.188;2023-05-12T00:22:20;99387.84;;;18.71;67.04
37848;BME280;23688;33.130;-117.188;2023-05-12T00:24:46;99388.75;;;18.74;66.06
37848;BME280;23688;33.130;-117.188;2023-05-12T00:27:13;99370.28;;;18.67;66.49
37848;BME280;23688;33.130;-117.188;2023-05-12T00:29:39;99379.91;;;18.63;67.35
37848;BME280;23688;33.130;-117.188;2023-05-12T00:32:06;99376.16;;;18.33;66.50
37848;BME280;23688;33.130;-117.188;2023-05-12T00:34:32;99379.84;;;18.55;66.71
37848;BME280;23688;33.130;-117.188;2023-05-12T00:36:59;99369.31;;;18.52;66.56
37848;BME280;23688;33.130;-117.188;2023-05-12T00:39:25;99385.22;;;18.72;66.55
37848;BME280;23688;33.130;-117.188;2023-05-12T00:41:58;99364.16;;;18.72;67.02
37848;BME280;23688;33.130;-117.188;2023-05-12T00:44:24;99378.19;;;18.68;67.10
37848;BME280;23688;33.130;-117.188;2023-05-12T00:46:53;99386.81;;;18.50;66.77
37848;BME280;23688;33.130;-117.188;2023-05-12T00:49:20;99383.25;;;18.42;67.80
37848;BME280;23688;33.130;-117.188;2023-05-12T00:51:46;99385.53;;;18.01;68.76
37848;BME280;23688;33.130;-117.188;2023-05-12T00:54:13;99382.50;;;17.64;71.26
37848;BME280;23688;33.130;-117.188;2023-05-12T00:56:39;99377.00;;;17.42;73.08
37848;BME280;23688;33.130;-117.188;2023-05-12T00:59:06;99384.81;;;17.38;75.17
37848;BME280;23688;33.130;-117.188;2023-05-12T01:01:33;99369.84;;;17.30;74.93
37848;BME280;23688;33.130;-117.188;2023-05-12T01:04:01;99392.13;;;17.68;75.36
37848;BME280;23688;33.130;-117.188;2023-05-12T01:06:36;99386.88;;;17.66;73.38
37848;BME280;23688;33.130;-117.188;2023-05-12T01:09:04;99394.34;;;17.31;75.28
37848;BME280;23688;33.130;-117.188;2023-05-12T01:11:30;99376.09;;;17.40;76.28
37848;BME280;23688;33.130;-117.188;2023-05-12T01:13:58;99384.19;;;17.59;74.76
37848;BME280;23688;33.130;-117.188;2023-05-12T01:16:34;99383.91;;;17.34;75.66
37848;BME280;23688;33.130;-117.188;2023-05-12T01:19:05;99391.56;;;17.19;78.23
37848;BME280;23688;33.130;-117.188;2023-05-12T01:21:35;99379.06;;;16.98;77.31
37848;BME280;23688;33.130;-117.188;2023-05-12T01:24:06;99383.28;;;16.89;78.48
37848;BME280;23688;33.130;-117.188;2023-05-12T01:26:34;99399.75;;;16.79;78.11
37848;BME280;23688;33.130;-117.188;2023-05-12T01:29:01;99394.63;;;16.85;79.08
37848;BME280;23688;33.130;-117.188;2023-05-12T01:31:31;99384.97;;;16.84;78.83
37848;BME280;23688;33.130;-117.188;2023-05-12T01:33:58;99386.53;;;16.75;79.28
37848;BME280;23688;33.130;-117.188;2023-05-12T01:36:24;99389.91;;;16.64;80.23
37848;BME280;23688;33.130;-117.188;2023-05-12T01:38:50;99402.00;;;16.58;81.47
37848;BME280;23688;33.130;-117.188;2023-05-12T01:41:17;99402.56;;;16.37;81.62
37848;BME280;23688;33.130;-117.188;2023-05-12T01:43:43;99395.03;;;16.57;81.78
37848;BME280;23688;33.130;-117.188;2023-05-12T01:46:10;99401.19;;;16.60;81.38
37848;BME280;23688;33.130;-117.188;2023-05-12T01:48:36;99402.50;;;16.32;82.77
37848;BME280;23688;33.130;-117.188;2023-05-12T01:51:06;99390.66;;;16.04;84.98
37848;BME280;23688;33.130;-117.188;2023-05-12T01:53:33;99399.31;;;16.00;86.26
37848;BME280;23688;33.130;-117.188;2023-05-12T01:55:59;99400.91;;;15.92;87.16
37848;BME280;23688;33.130;-117.188;2023-05-12T01:58:26;99409.69;;;15.94;88.82
37848;BME280;23688;33.130;-117.188;2023-05-12T02:00:52;99407.59;;;15.76;90.02
37848;BME280;23688;33.130;-117.188;2023-05-12T02:03:18;99397.59;;;15.56;91.90
37848;BME280;23688;33.130;-117.188;2023-05-12T02:05:45;99394.38;;;15.70;91.83
37848;BME280;23688;33.130;-117.188;2023-05-12T02:08:11;99388.31;;;15.71;92.61
37848;BME280;23688;33.130;-117.188;2023-05-12T02:10:37;99401.53;;;15.78;92.75
37848;BME280;23688;33.130;-117.188;2023-05-12T02:13:04;99407.66;;;15.79;92.62
37848;BME280;23688;33.130;-117.188;2023-05-12T02:15:30;99406.38;;;15.58;93.37
37848;BME280;23688;33.130;-117.188;2023-05-12T02:17:56;99409.25;;;15.30;96.81
37848;BME280;23688;33.130;-117.188;2023-05-12T02:20:24;99414.19;;;15.16;97.32
37848;BME280;23688;33.130;-117.188;2023-05-12T02:22:53;99418.13;;;14.97;98.17
37848;BME280;23688;33.130;-117.188;2023-05-12T02:25:19;99401.78;;;14.68;99.10
37848;BME280;23688;33.130;-117.188;2023-05-12T02:27:46;99425.47;;;14.74;99.42
37848;BME280;23688;33.130;-117.188;2023-05-12T02:30:12;99423.72;;;14.74;99.34
37848;BME280;23688;33.130;-117.188;2023-05-12T02:32:40;99432.31;;;14.69;100.00
37848;BME280;23688;33.130;-117.188;2023-05-12T02:35:07;99425.00;;;14.55;100.00
37848;BME280;23688;33.130;-117.188;2023-05-12T02:37:34;99431.88;;;14.52;100.00
37848;BME280;23688;33.130;-117.188;2023-05-12T02:40:01;99436.16;;;14.50;100.00
37848;BME280;23688;33.130;-117.188;2023-05-12T02:42:27;99441.59;;;14.58;100.00
37848;BME280;23688;33.130;-117.188;2023-05-12T02:44:58;99446.03;;;14.60;100.00
37848;BME280;23688;33.130;-117.188;2023-05-12T02:47:24;99442.91;;;14.40;100.00
37848;BME280;23688;33.130;-117.188;2023-05-12T02:49:51;99440.84;;;14.28;100.00
37848;BME280;23688;33.130;-117.188;2023-05-12T02:52:17;99414.53;;;14.21;100.00
37848;BME280;23688;33.130;-117.188;2023-05-12T02:54:44;99426.03;;;14.27;100.00
37848;BME280;23688;33.130;-117.188;2023-05-12T02:57:10;99448.00;;;14.35;100.00
37848;BME280;23688;33.130;-117.188;2023-05-12T02:59:36;99445.50;;;14.40;100.00
37848;BME280;23688;33.130;-117.188;2023-05-12T03:02:03;99450.50;;;14.31;100.00
37848;BME280;23688;33.130;-117.188;2023-05-12T03:04:30;99450.25;;;14.53;100.00
37848;BME280;23688;33.130;-117.188;2023-05-12T03:06:58;99460.88;;;14.63;100.00
37848;BME280;23688;33.130;-117.188;2023-05-12T03:09:24;99448.06;;;14.37;100.00
37848;BME280;23688;33.130;-117.188;2023-05-12T03:11:50;99456.81;;;14.39;100.00
37848;BME280;23688;33.130;-117.188;2023-05-12T03:14:17;99456.72;;;14.36;100.00
37848;BME280;23688;33.130;-117.188;2023-05-12T03:16:43;99466.69;;;14.51;100.00
37848;BME280;23688;33.130;-117.188;2023-05-12T03:19:09;99456.13;;;14.48;100.00
37848;BME280;23688;33.130;-117.188;2023-05-12T03:21:36;99471.41;;;14.64;100.00
37848;BME280;23688;33.130;-117.188;2023-05-12T03:24:02;99476.00;;;14.74;100.00
37848;BME280;23688;33.130;-117.188;2023-05-12T03:26:28;99480.97;;;14.65;100.00
37848;BME280;23688;33.130;-117.188;2023-05-12T03:28:55;99484.28;;;14.58;100.00
37848;BME280;23688;33.130;-117.188;2023-05-12T03:31:21;99476.06;;;14.77;100.00
37848;BME280;23688;33.130;-117.188;2023-05-12T03:33:47;99491.72;;;14.76;100.00
37848;BME280;23688;33.130;-117.188;2023-05-12T03:36:14;99481.97;;;14.69;100.00
37848;BME280;23688;33.130;-117.188;2023-05-12T03:38:40;99491.84;;;14.81;100.00
37848;BME280;23688;33.130;-117.188;2023-05-12T03:41:07;99491.19;;;14.54;100.00
37848;BME280;23688;33.130;-117.188;2023-05-12T03:43:33;99495.25;;;14.45;100.00
37848;BME280;23688;33.130;-117.188;2023-05-12T03:46:01;99499.44;;;14.38;100.00
37848;BME280;23688;33.130;-117.188;2023-05-12T03:48:27;99484.44;;;14.31;100.00
37848;BME280;23688;33.130;-117.188;2023-05-12T03:50:53;99499.75;;;14.50;100.00
37848;BME280;23688;33.130;-117.188;2023-05-12T03:53:20;99495.78;;;14.65;100.00
37848;BME280;23688;33.130;-117.188;2023-05-12T03:55:46;99494.41;;;14.79;100.00
37848;BME280;23688;33.130;-117.188;2023-05-12T03:58:13;99499.16;;;14.95;100.00
37848;BME280;23688;33.130;-117.188;2023-05-12T04:00:39;99506.25;;;15.01;100.00
37848;BME280;23688;33.130;-117.188;2023-05-12T04:03:05;99500.38;;;15.10;100.00
37848;BME280;23688;33.130;-117.188;2023-05-12T04:05:32;99494.75;;;14.94;100.00
37848;BME280;23688;33.130;-117.188;2023-05-12T04:07:58;99495.63;;;14.93;100.00
37848;BME280;23688;33.130;-117.188;2023-05-12T04:10:24;99491.25;;;14.92;100.00
37848;BME280;23688;33.130;-117.188;2023-05-12T04:12:51;99500.78;;;14.90;100.00
37848;BME280;23688;33.130;-117.188;2023-05-12T04:15:17;99503.50;;;14.95;100.00
37848;BME280;23688;33.130;-117.188;2023-05-12T04:17:44;99503.91;;;14.75;100.00
37848;BME280;23688;33.130;-117.188;2023-05-12T04:20:10;99504.03;;;14.47;100.00
37848;BME280;23688;33.130;-117.188;2023-05-12T04:22:36;99499.38;;;14.70;100.00
37848;BME280;23688;33.130;-117.188;2023-05-12T04:25:03;99513.91;;;14.93;100.00
37848;BME280;23688;33.130;-117.188;2023-05-12T04:27:29;99511.94;;;14.83;100.00
37848;BME280;23688;33.130;-117.188;2023-05-12T04:29:55;99512.75;;;14.81;100.00
37848;BME280;23688;33.130;-117.188;2023-05-12T04:32:22;99512.66;;;14.77;100.00
37848;BME280;23688;33.130;-117.188;2023-05-12T04:34:49;99506.84;;;14.89;100.00
37848;BME280;23688;33.130;-117.188;2023-05-12T04:37:16;99514.25;;;14.72;100.00
37848;BME280;23688;33.130;-117.188;2023-05-12T04:39:42;99508.81;;;14.98;100.00
37848;BME280;23688;33.130;-117.188;2023-05-12T04:42:08;99510.22;;;15.22;100.00
37848;BME280;23688;33.130;-117.188;2023-05-12T04:44:35;99513.13;;;15.35;99.99
37848;BME280;23688;33.130;-117.188;2023-05-12T04:47:01;99501.84;;;15.38;99.36
37848;BME280;23688;33.130;-117.188;2023-05-12T04:49:29;99518.63;;;15.48;98.82
37848;BME280;23688;33.130;-117.188;2023-05-12T04:51:55;99507.34;;;15.49;98.44
37848;BME280;23688;33.130;-117.188;2023-05-12T04:54:21;99503.56;;;15.36;98.49
37848;BME280;23688;33.130;-117.188;2023-05-12T04:56:48;99504.81;;;15.14;100.00
37848;BME280;23688;33.130;-117.188;2023-05-12T04:59:14;99507.91;;;15.34;99.66
37848;BME280;23688;33.130;-117.188;2023-05-12T05:01:41;99510.56;;;15.37;99.62
37848;BME280;23688;33.130;-117.188;2023-05-12T05:04:08;99501.56;;;15.24;100.00
37848;BME280;23688;33.130;-117.188;2023-05-12T05:06:34;99493.78;;;15.27;99.87
37848;BME280;23688;33.130;-117.188;2023-05-12T05:09:00;99520.44;;;15.49;99.65
37848;BME280;23688;33.130;-117.188;2023-05-12T05:11:27;99508.28;;;15.52;99.10
37848;BME280;23688;33.130;-117.188;2023-05-12T05:13:53;99514.59;;;15.62;99.03
37848;BME280;23688;33.130;-117.188;2023-05-12T05:16:20;99510.13;;;15.58;98.93
37848;BME280;23688;33.130;-117.188;2023-05-12T05:18:47;99510.69;;;15.43;99.32
37848;BME280;23688;33.130;-117.188;2023-05-12T05:21:14;99495.53;;;15.28;99.63
37848;BME280;23688;33.130;-117.188;2023-05-12T05:23:40;99515.91;;;15.41;99.81
37848;BME280;23688;33.130;-117.188;2023-05-12T05:26:08;99521.16;;;15.43;99.58
37848;BME280;23688;33.130;-117.188;2023-05-12T05:28:35;99513.19;;;15.38;99.35
37848;BME280;23688;33.130;-117.188;2023-05-12T05:31:05;99516.41;;;15.25;99.79
37848;BME280;23688;33.130;-117.188;2023-05-12T05:33:31;99514.94;;;15.36;99.29
37848;BME280;23688;33.130;-117.188;2023-05-12T05:35:58;99516.06;;;15.49;99.14
37848;BME280;23688;33.130;-117.188;2023-05-12T05:38:24;99520.59;;;15.58;99.21
37848;BME280;23688;33.130;-117.188;2023-05-12T05:40:51;99513.66;;;15.58;99.05
37848;BME280;23688;33.130;-117.188;2023-05-12T05:43:17;99502.94;;;15.48;98.86
37848;BME280;23688;33.130;-117.188;2023-05-12T05:45:43;99507.06;;;15.36;99.07
37848;BME280;23688;33.130;-117.188;2023-05-12T05:48:10;99513.56;;;15.54;98.79
37848;BME280;23688;33.130;-117.188;2023-05-12T05:50:38;99508.53;;;15.65;98.01
37848;BME280;23688;33.130;-117.188;2023-05-12T05:53:05;99510.34;;;15.67;97.56
37848;BME280;23688;33.130;-117.188;2023-05-12T05:55:31;99501.56;;;15.63;97.84
37848;BME280;23688;33.130;-117.188;2023-05-12T05:57:58;99509.59;;;15.71;97.30
37848;BME280;23688;33.130;-117.188;2023-05-12T06:00:24;99493.75;;;15.67;97.22
37848;BME280;23688;33.130;-117.188;2023-05-12T06:02:50;99503.00;;;15.51;97.75
37848;BME280;23688;33.130;-117.188;2023-05-12T06:05:17;99491.28;;;15.32;98.39
37848;BME280;23688;33.130;-117.188;2023-05-12T06:07:43;99480.81;;;15.32;98.40
37848;BME280;23688;33.130;-117.188;2023-05-12T06:10:09;99486.38;;;15.47;97.77
37848;BME280;23688;33.130;-117.188;2023-05-12T06:12:36;99494.38;;;15.55;97.17
37848;BME280;23688;33.130;-117.188;2023-05-12T06:15:02;99499.81;;;15.64;96.54
37848;BME280;23688;33.130;-117.188;2023-05-12T06:17:29;99506.78;;;15.65;96.02
37848;BME280;23688;33.130;-117.188;2023-05-12T06:19:56;99498.84;;;15.59;96.02
37848;BME280;23688;33.130;-117.188;2023-05-12T06:22:22;99489.97;;;15.52;96.50
37848;BME280;23688;33.130;-117.188;2023-05-12T06:24:50;99491.56;;;15.46;97.21
37848;BME280;23688;33.130;-117.188;2023-05-12T06:27:17;99475.53;;;15.30;97.55
37848;BME280;23688;33.130;-117.188;2023-05-12T06:29:43;99486.25;;;15.43;97.50
37848;BME280;23688;33.130;-117.188;2023-05-12T06:32:09;99500.47;;;15.55;97.37
37848;BME280;23688;33.130;-117.188;2023-05-12T06:34:36;99491.00;;;15.60;97.29
37848;BME280;23688;33.130;-117.188;2023-05-12T06:37:02;99496.22;;;15.59;97.22
37848;BME280;23688;33.130;-117.188;2023-05-12T06:39:28;99481.22;;;15.52;97.14
37848;BME280;23688;33.130;-117.188;2023-05-12T06:41:55;99502.94;;;15.48;97.43
37848;BME280;23688;33.130;-117.188;2023-05-12T06:44:22;99502.94;;;15.46;97.70
37848;BME280;23688;33.130;-117.188;2023-05-12T06:46:48;99505.81;;;15.58;97.72
37848;BME280;23688;33.130;-117.188;2023-05-12T06:49:14;99494.47;;;15.59;97.71
37848;BME280;23688;33.130;-117.188;2023-05-12T06:51:41;99485.50;;;15.47;97.59
37848;BME280;23688;33.130;-117.188;2023-05-12T06:54:07;99504.00;;;15.56;97.50
37848;BME280;23688;33.130;-117.188;2023-05-12T06:56:34;99498.13;;;15.27;98.23
37848;BME280;23688;33.130;-117.188;2023-05-12T06:59:00;99501.03;;;15.01;100.00
37848;BME280;23688;33.130;-117.188;2023-05-12T07:01:31;99496.06;;;15.13;99.90
37848;BME280;23688;33.130;-117.188;2023-05-12T07:03:58;99495.19;;;15.13;100.00
37848;BME280;23688;33.130;-117.188;2023-05-12T07:06:25;99494.72;;;15.31;99.43
37848;BME280;23688;33.130;-117.188;2023-05-12T07:08:53;99500.56;;;15.19;99.64
37848;BME280;23688;33.130;-117.188;2023-05-12T07:11:19;99500.38;;;15.10;100.00
37848;BME280;23688;33.130;-117.188;2023-05-12T07:13:46;99505.41;;;15.02;100.00
37848;BME280;23688;33.130;-117.188;2023-05-12T07:16:13;99495.25;;;14.78;100.00
37848;BME280;23688;33.130;-117.188;2023-05-12T07:18:40;99495.50;;;14.89;100.00
37848;BME280;23688;33.130;-117.188;2023-05-12T07:21:06;99493.53;;;14.80;100.00
37848;BME280;23688;33.130;-117.188;2023-05-12T07:23:34;99493.06;;;14.96;100.00
37848;BME280;23688;33.130;-117.188;2023-05-12T07:26:01;99495.25;;;15.16;100.00
37848;BME280;23688;33.130;-117.188;2023-05-12T07:28:33;99479.75;;;14.86;100.00
37848;BME280;23688;33.130;-117.188;2023-05-12T07:31:06;99494.09;;;15.03;100.00
37848;BME280;23688;33.130;-117.188;2023-05-12T07:33:34;99498.56;;;15.07;100.00
37848;BME280;23688;33.130;-117.188;2023-05-12T07:36:01;99478.75;;;15.17;100.00
37848;BME280;23688;33.130;-117.188;2023-05-12T07:38:29;99493.53;;;15.16;100.00
37848;BME280;23688;33.130;-117.188;2023-05-12T07:40:56;99481.72;;;15.34;99.10
37848;BME280;23688;33.130;-117.188;2023-05-12T07:43:23;99480.09;;;15.40;98.59
37848;BME280;23688;33.130;-117.188;2023-05-12T07:45:49;99487.22;;;15.46;97.69
37848;BME280;23688;33.130;-117.188;2023-05-12T07:48:15;99479.41;;;15.48;97.57
37848;BME280;23688;33.130;-117.188;2023-05-12T07:50:42;99459.84;;;15.30;97.42
37848;BME280;23688;33.130;-117.188;2023-05-12T07:53:08;99477.66;;;15.48;97.26
37848;BME280;23688;33.130;-117.188;2023-05-12T07:55:34;99475.13;;;15.51;97.10
37848;BME280;23688;33.130;-117.188;2023-05-12T07:58:00;99475.97;;;15.50;96.89
37848;BME280;23688;33.130;-117.188;2023-05-12T08:00:27;99473.28;;;15.47;96.92
37848;BME280;23688;33.130;-117.188;2023-05-12T08:02:53;99472.47;;;15.50;96.94
37848;BME280;23688;33.130;-117.188;2023-05-12T08:05:20;99467.28;;;15.51;96.79
37848;BME280;23688;33.130;-117.188;2023-05-12T08:07:46;99463.84;;;15.54;96.36
37848;BME280;23688;33.130;-117.188;2023-05-12T08:10:13;99465.63;;;15.56;95.80
37848;BME280;23688;33.130;-117.188;2023-05-12T08:12:40;99470.88;;;15.58;95.62
37848;BME280;23688;33.130;-117.188;2023-05-12T08:15:07;99464.66;;;15.51;95.72
37848;BME280;23688;33.130;-117.188;2023-05-12T08:17:34;99445.28;;;15.41;96.07
37848;BME280;23688;33.130;-117.188;2023-05-12T08:20:00;99462.19;;;15.59;95.82
37848;BME280;23688;33.130;-117.188;2023-05-12T08:22:29;99455.22;;;15.59;95.60
37848;BME280;23688;33.130;-117.188;2023-05-12T08:24:56;99448.97;;;15.53;95.75
37848;BME280;23688;33.130;-117.188;2023-05-12T08:27:22;99435.53;;;15.36;95.83
37848;BME280;23688;33.130;-117.188;2023-05-12T08:29:48;99446.59;;;15.23;96.54
37848;BME280;23688;33.130;-117.188;2023-05-12T08:32:14;99436.09;;;15.19;96.80
37848;BME280;23688;33.130;-117.188;2023-05-12T08:34:41;99451.22;;;15.36;96.53
37848;BME280;23688;33.130;-117.188;2023-05-12T08:37:07;99448.75;;;15.42;96.15
37848;BME280;23688;33.130;-117.188;2023-05-12T08:39:34;99448.91;;;15.50;95.89
37848;BME280;23688;33.130;-117.188;2023-05-12T08:42:17;99438.41;;;15.47;95.97
37848;BME280;23688;33.130;-117.188;2023-05-12T08:44:48;99442.00;;;15.52;95.53
37848;BME280;23688;33.130;-117.188;2023-05-12T08:47:14;99444.66;;;15.53;95.48
37848;BME280;23688;33.130;-117.188;2023-05-12T08:49:44;99444.66;;;15.55;95.24
37848;BME280;23688;33.130;-117.188;2023-05-12T08:52:15;99446.41;;;15.54;95.20
37848;BME280;23688;33.130;-117.188;2023-05-12T08:54:46;99444.66;;;15.53;95.48
37848;BME280;23688;33.130;-117.188;2023-05-12T08:57:15;99436.78;;;15.53;95.35
37848;BME280;23688;33.130;-117.188;2023-05-12T08:59:43;99442.91;;;15.55;95.55
37848;BME280;23688;33.130;-117.188;2023-05-12T09:02:10;99444.69;;;15.56;95.62
37848;BME280;23688;33.130;-117.188;2023-05-12T09:04:37;99436.84;;;15.58;95.59
37848;BME280;23688;33.130;-117.188;2023-05-12T09:07:07;99444.66;;;15.53;94.96
37848;BME280;23688;33.130;-117.188;2023-05-12T09:09:35;99431.47;;;15.49;95.03
37848;BME280;23688;33.130;-117.188;2023-05-12T09:12:06;99425.16;;;15.40;95.46
37848;BME280;23688;33.130;-117.188;2023-05-12T09:14:35;99428.66;;;15.39;95.71
37848;BME280;23688;33.130;-117.188;2023-05-12T09:17:04;99432.00;;;15.32;96.24
37848;BME280;23688;33.130;-117.188;2023-05-12T09:19:31;99428.44;;;15.30;96.47
37848;BME280;23688;33.130;-117.188;2023-05-12T09:22:00;99422.09;;;15.19;96.63
37848;BME280;23688;33.130;-117.188;2023-05-12T09:24:36;99411.72;;;15.22;96.85
37848;BME280;23688;33.130;-117.188;2023-05-12T09:27:03;99431.06;;;15.30;96.85
37848;BME280;23688;33.130;-117.188;2023-05-12T09:29:30;99425.72;;;15.24;96.84
37848;BME280;23688;33.130;-117.188;2023-05-12T09:32:02;99402.97;;;15.20;96.77
37848;BME280;23688;33.130;-117.188;2023-05-12T09:34:33;99425.94;;;15.35;96.71
37848;BME280;23688;33.130;-117.188;2023-05-12T09:37:05;99425.16;;;15.39;96.66
37848;BME280;23688;33.130;-117.188;2023-05-12T09:39:33;99422.34;;;15.31;96.84
37848;BME280;23688;33.130;-117.188;2023-05-12T09:41:59;99429.47;;;15.37;96.62
37848;BME280;23688;33.130;-117.188;2023-05-12T09:44:26;99426.03;;;15.39;96.39
37848;BME280;23688;33.130;-117.188;2023-05-12T09:46:54;99414.66;;;15.37;96.37
37848;BME280;23688;33.130;-117.188;2023-05-12T09:49:24;99410.25;;;15.35;96.63
37848;BME280;23688;33.130;-117.188;2023-05-12T09:51:58;99419.94;;;15.39;96.29
37848;BME280;23688;33.130;-117.188;2023-05-12T09:54:25;99421.38;;;15.26;96.96
37848;BME280;23688;33.130;-117.188;2023-05-12T09:56:58;99417.13;;;15.30;96.99
37848;BME280;23688;33.130;-117.188;2023-05-12T09:59:30;99411.09;;;15.34;96.61
37848;BME280;23688;33.130;-117.188;2023-05-12T10:02:01;99391.06;;;15.34;96.34
37848;BME280;23688;33.130;-117.188;2023-05-12T10:04:33;99414.97;;;15.53;96.16
37848;BME280;23688;33.130;-117.188;2023-05-12T10:07:11;99398.31;;;15.49;95.99
37848;BME280;23688;33.130;-117.188;2023-05-12T10:09:40;99394.75;;;15.44;95.97
37848;BME280;23688;33.130;-117.188;2023-05-12T10:12:08;99423.63;;;15.49;95.84
37848;BME280;23688;33.130;-117.188;2023-05-12T10:14:34;99415.69;;;15.46;95.68
37848;BME280;23688;33.130;-117.188;2023-05-12T10:17:02;99419.28;;;15.51;95.90
37848;BME280;23688;33.130;-117.188;2023-05-12T10:19:29;99417.56;;;15.53;95.83
37848;BME280;23688;33.130;-117.188;2023-05-12T10:21:56;99419.22;;;15.46;95.88
37848;BME280;23688;33.130;-117.188;2023-05-12T10:24:27;99416.44;;;15.40;96.13
37848;BME280;23688;33.130;-117.188;2023-05-12T10:26:54;99412.09;;;15.40;96.11
37848;BME280;23688;33.130;-117.188;2023-05-12T10:29:22;99406.94;;;15.44;95.85
37848;BME280;23688;33.130;-117.188;2023-05-12T10:31:55;99407.06;;;15.50;95.84
37848;BME280;23688;33.130;-117.188;2023-05-12T10:34:35;99393.00;;;15.45;95.92
37848;BME280;23688;33.130;-117.188;2023-05-12T10:37:04;99399.09;;;15.44;96.24
37848;BME280;23688;33.130;-117.188;2023-05-12T10:39:33;99396.44;;;15.42;96.15
37848;BME280;23688;33.130;-117.188;2023-05-12T10:42:09;99406.72;;;15.33;96.92
37848;BME280;23688;33.130;-117.188;2023-05-12T10:44:48;99410.66;;;15.14;97.52
37848;BME280;23688;33.130;-117.188;2023-05-12T10:47:15;99410.34;;;14.98;98.59
37848;BME280;23688;33.130;-117.188;2023-05-12T10:49:42;99393.34;;;14.78;100.00
37848;BME280;23688;33.130;-117.188;2023-05-12T10:52:10;99399.38;;;14.77;100.00
37848;BME280;23688;33.130;-117.188;2023-05-12T10:54:42;99405.44;;;14.74;100.00
37848;BME280;23688;33.130;-117.188;2023-05-12T10:57:13;99415.94;;;14.76;100.00
37848;BME280;23688;33.130;-117.188;2023-05-12T10:59:59;99419.09;;;14.63;100.00
37848;BME280;23688;33.130;-117.188;2023-05-12T11:02:27;99420.06;;;14.66;100.00
37848;BME280;23688;33.130;-117.188;2023-05-12T11:05:02;99421.56;;;14.57;100.00
37848;BME280;23688;33.130;-117.188;2023-05-12T11:07:34;99428.72;;;14.65;100.00
37848;BME280;23688;33.130;-117.188;2023-05-12T11:10:03;99414.66;;;14.60;100.00
37848;BME280;23688;33.130;-117.188;2023-05-12T11:12:31;99411.13;;;14.58;100.00
37848;BME280;23688;33.130;-117.188;2023-05-12T11:15:01;99424.59;;;14.73;100.00
37848;BME280;23688;33.130;-117.188;2023-05-12T11:17:28;99416.75;;;14.75;100.00
37848;BME280;23688;33.130;-117.188;2023-05-12T11:19:54;99417.63;;;14.74;100.00
37848;BME280;23688;33.130;-117.188;2023-05-12T11:22:22;99406.69;;;14.90;100.00
37848;BME280;23688;33.130;-117.188;2023-05-12T11:24:49;99408.47;;;14.93;100.00
37848;BME280;23688;33.130;-117.188;2023-05-12T11:27:19;99399.72;;;14.91;100.00
37848;BME280;23688;33.130;-117.188;2023-05-12T11:29:55;99418.06;;;14.92;100.00
37848;BME280;23688;33.130;-117.188;2023-05-12T11:32:22;99402.31;;;14.91;100.00
37848;BME280;23688;33.130;-117.188;2023-05-12T11:34:48;99411.09;;;14.94;100.00
37848;BME280;23688;33.130;-117.188;2023-05-12T11:37:14;99403.97;;;14.86;100.00
37848;BME280;23688;33.130;-117.188;2023-05-12T11:39:42;99406.69;;;14.92;100.00
37848;BME280;23688;33.130;-117.188;2023-05-12T11:42:08;99403.38;;;14.99;100.00
37848;BME280;23688;33.130;-117.188;2023-05-12T11:44:35;99404.22;;;14.98;100.00
37848;BME280;23688;33.130;-117.188;2023-05-12T11:47:11;99405.88;;;14.94;100.00
37848;BME280;23688;33.130;-117.188;2023-05-12T11:49:53;99404.66;;;14.79;100.00
37848;BME280;23688;33.130;-117.188;2023-05-12T11:52:22;99400.91;;;14.67;100.00
37848;BME280;23688;33.130;-117.188;2023-05-12T11:54:49;99402.69;;;14.68;100.00
37848;BME280;23688;33.130;-117.188;2023-05-12T11:57:26;99402.16;;;14.83;100.00
37848;BME280;23688;33.130;-117.188;2023-05-12T12:00:01;99404.41;;;14.68;100.00
37848;BME280;23688;33.130;-117.188;2023-05-12T12:02:28;99403.63;;;14.72;100.00
37848;BME280;23688;33.130;-117.188;2023-05-12T12:04:54;99402.59;;;14.65;100.00
37848;BME280;23688;33.130;-117.188;2023-05-12T12:07:34;99394.41;;;14.51;100.00
37848;BME280;23688;33.130;-117.188;2023-05-12T12:10:11;99406.31;;;14.75;100.00
37848;BME280;23688;33.130;-117.188;2023-05-12T12:12:39;99399.97;;;14.64;100.00
37848;BME280;23688;33.130;-117.188;2023-05-12T12:15:05;99401.78;;;14.68;100.00
37848;BME280;23688;33.130;-117.188;2023-05-12T12:17:32;99411.34;;;14.67;100.00
37848;BME280;23688;33.130;-117.188;2023-05-12T12:19:58;99406.88;;;14.62;100.00
37848;BME280;23688;33.130;-117.188;2023-05-12T12:22:25;99400.91;;;14.66;100.00
37848;BME280;23688;33.130;-117.188;2023-05-12T12:24:51;99407.09;;;14.71;100.00
37848;BME280;23688;33.130;-117.188;2023-05-12T12:27:18;99407.91;;;14.68;100.00